Дата Пункты Температура Давл., мм. Влажн., % Ветер Погодные явления
Воздуха Воды Направл. Скорость
06.11.19 02:00 Одесса 18.0 13.0 750 75 Пд-З 2 14 ГОДИН
06.11.19 11:00 Одесса 18.0 13.0 751 81 Пд-З 3 11 ГОДИН
06.11.19 08:00 Одесса 16.0 13.0 752 90 Пд-З 3 08 ГОДИН
06.11.19 05:00 Одесса 15.0 13.0 752 94 Пд 3 05 ГОДИН
06.11.19 02:00 Одесса 15.0 13.0 753 89 Пд-З 2 02 ГОДИНИ
05.11.19 11:00 Одесса 16.0 13.0 754 82 Пд-З 3 23 ГОДИНИ
05.11.19 08:00 Одесса 17.0 13.0 754 68 Пд-З 3 20 ГОДИН
05.11.19 05:00 Одесса 17.0 14.0 753 71 Пд-З 3 17 ГОДИН
05.11.19 02:00 Одесса 18.0 14.0 753 74 Пд 2 14 ГОДИН
05.11.19 11:00 Одесса 20.0 13.0 752 63 З 2 11 ГОДИН
05.11.19 08:00 Одесса 16.0 13.0 751 90 З 4 08 ГОДИН
05.11.19 05:00 Одесса 16.0 13.0 750 91 Пд-З 3 05 ГОДИН
05.11.19 02:00 Одесса 17.0 13.0 750 85 Пд-З 3 02 ГОДИНИ
04.11.19 11:00 Одесса 17.0 13.0 751 85 Пд-З 6 23 ГОДИНИ
04.11.19 08:00 Одесса 16.0 13.0 751 87 Пд-З 5 20 ГОДИН
04.11.19 05:00 Одесса 16.0 13.0 751 87 Пд-З 4 17 ГОДИН
04.11.19 02:00 Одесса 17.0 13.0 752 83 Пд 3 14 ГОДИН
04.11.19 11:00 Одесса 16.0 13.0 752 84 Пд-З 3 11 ГОДИН
04.11.19 08:00 Одесса 16.0 13.0 753 88 Пд-З 2 08 ГОДИН
04.11.19 05:00 Одесса 15.0 12.0 753 91 Пд-З 3 05 ГОДИН
Количество строк
1 2 3 4 5 6 7 8 9 10
Page 6 of 553